Time;durP1;ratioP1;P1;durP2;ratioP2;P2;SDS_P1;SDS_P2;PMS_P1;PMS_P2;Temp;Humidity;BMP_temperature;BMP_pressure;BME280_temperature;BME280_humidity;BME280_pressure;Samples;Min_cycle;Max_cycle;Signal;HPM_P1;HPM_P2
2021/06/02 00:02:11;;;;;;;9.18;4.43;;;;;;;13.08;69.61;98152.94;5008192;28;20058;-86
2021/06/02 00:04:57;;;;;;;6.88;4.53;;;;;;;12.94;69.96;98148.56;4992678;28;20053;-85
2021/06/02 00:07:24;;;;;;;8.75;4.28;;;;;;;12.93;70.14;98157.91;4976988;28;20110;-84
2021/06/02 00:09:51;;;;;;;8.48;5.43;;;;;;;12.83;71.03;98151.50;4996124;28;20026;-83
2021/06/02 00:12:17;;;;;;;4.97;3.67;;;;;;;12.77;71.49;98149.16;4996897;28;20030;-85
2021/06/02 00:14:43;;;;;;;7.85;3.75;;;;;;;12.72;71.85;98158.28;5015013;28;20052;-84
2021/06/02 00:17:11;;;;;;;9.50;4.82;;;;;;;12.61;71.86;98159.63;4997811;28;20092;-85
2021/06/02 00:19:36;;;;;;;8.32;5.28;;;;;;;12.45;73.27;98154.72;5016814;28;20026;-86
2021/06/02 00:22:04;;;;;;;6.20;4.43;;;;;;;12.38;73.50;98160.59;5004198;28;20033;-86
2021/06/02 00:24:29;;;;;;;8.23;3.50;;;;;;;12.35;73.60;98153.78;5022413;28;20018;-88
2021/06/02 00:26:57;;;;;;;8.45;4.35;;;;;;;12.35;73.89;98156.53;5016385;28;20029;-86
2021/06/02 00:29:31;;;;;;;7.78;4.00;;;;;;;12.25;74.45;98142.16;5016025;28;20041;-89
2021/06/02 00:31:57;;;;;;;19.77;4.53;;;;;;;12.33;74.04;98150.53;5016132;28;20716;-85
2021/06/02 00:34:23;;;;;;;8.10;6.00;;;;;;;12.21;74.48;98163.09;5005899;28;20026;-88
2021/06/02 00:36:49;;;;;;;8.43;4.93;;;;;;;12.12;74.57;98160.22;5003756;28;20034;-86
2021/06/02 00:39:16;;;;;;;6.80;4.47;;;;;;;12.16;74.95;98165.91;4984081;28;20443;-87
2021/06/02 00:41:47;;;;;;;5.05;3.65;;;;;;;12.21;74.91;98155.69;5008204;28;20038;-85
2021/06/02 00:44:15;;;;;;;6.97;3.58;;;;;;;12.21;74.70;98160.34;5015925;28;20029;-87
2021/06/02 00:46:41;;;;;;;5.15;3.63;;;;;;;12.16;74.99;98150.28;5015589;28;20042;-86
2021/06/02 00:49:11;;;;;;;5.18;3.78;;;;;;;12.02;75.60;98149.44;4998388;28;20058;-86
2021/06/02 00:51:38;;;;;;;5.10;3.33;;;;;;;11.97;75.75;98157.72;4998267;28;20037;-86
2021/06/02 00:54:04;;;;;;;4.75;3.22;;;;;;;12.09;75.61;98165.50;4999124;28;20021;-84
2021/06/02 00:56:37;;;;;;;8.57;3.85;;;;;;;12.10;75.44;98164.38;5004750;28;20026;-86
2021/06/02 00:59:04;;;;;;;7.43;3.50;;;;;;;12.17;74.73;98157.41;4985729;28;20073;-85
2021/06/02 01:01:34;;;;;;;10.98;4.05;;;;;;;12.16;75.61;98154.94;5009269;28;20068;-83
2021/06/02 01:04:04;;;;;;;5.68;3.58;;;;;;;12.12;75.84;98160.22;5034131;28;20025;-85
2021/06/02 01:06:35;;;;;;;5.20;4.07;;;;;;;12.37;75.25;98163.66;5004110;28;20113;-86
2021/06/02 01:09:04;;;;;;;7.93;4.57;;;;;;;12.23;75.70;98155.38;4999189;28;20132;-86
2021/06/02 01:11:31;;;;;;;8.43;4.80;;;;;;;12.34;75.60;98167.81;4998135;28;20387;-88
2021/06/02 01:13:58;;;;;;;11.23;5.65;;;;;;;12.45;74.96;98162.94;5015375;28;20029;-86
2021/06/02 01:16:32;;;;;;;12.32;5.18;;;;;;;12.43;75.05;98170.66;5015458;28;20026;-87
2021/06/02 01:18:58;;;;;;;14.52;5.60;;;;;;;12.54;74.65;98163.88;5015502;28;20455;-86
2021/06/02 01:21:30;;;;;;;8.95;6.22;;;;;;;12.40;75.18;98166.59;5018067;28;20030;-85
2021/06/02 01:23:59;;;;;;;8.95;5.75;;;;;;;12.40;75.07;98172.09;5019342;28;20030;-86
2021/06/02 01:26:29;;;;;;;10.98;6.00;;;;;;;12.40;74.92;98166.59;5018742;28;20041;-86
2021/06/02 01:28:55;;;;;;;7.25;4.00;;;;;;;12.32;75.10;98170.84;4999696;28;20026;-86
2021/06/02 01:31:32;;;;;;;6.68;4.45;;;;;;;12.31;75.11;98158.22;5013028;28;20091;-86
2021/06/02 01:34:23;;;;;;;10.02;4.68;;;;;;;12.31;75.12;98163.72;4991152;28;20056;-85
2021/06/02 01:37:12;;;;;;;6.60;4.25;;;;;;;12.38;75.29;98159.78;4993027;28;20081;-86
2021/06/02 01:40:02;;;;;;;10.80;4.53;;;;;;;12.41;75.46;98165.47;4996417;28;20029;-87
2021/06/02 01:43:00;;;;;;;11.13;4.30;;;;;;;12.44;75.54;98162.13;5014856;28;20091;-86
2021/06/02 01:45:28;;;;;;;4.63;3.90;;;;;;;12.46;75.56;98159.91;4997952;28;20077;-86
2021/06/02 01:48:06;;;;;;;3.95;3.35;;;;;;;12.49;75.62;98153.00;4997683;28;20093;-86
2021/06/02 01:51:06;;;;;;;6.78;3.55;;;;;;;12.49;75.91;98147.50;5015114;28;20076;-83
2021/06/02 01:53:51;;;;;;;5.07;3.60;;;;;;;12.61;75.78;98145.91;5015427;28;20025;-86
2021/06/02 01:57:05;;;;;;;6.60;3.50;;;;;;;12.56;76.17;98145.97;5014834;28;20034;-87
2021/06/02 01:59:39;;;;;;;4.05;3.05;;;;;;;12.55;76.50;98147.13;4954341;29;20050;-87
2021/06/02 02:02:58;;;;;;;4.57;3.65;;;;;;;12.46;76.25;98142.63;4958201;29;20390;-85
2021/06/02 02:05:39;;;;;;;6.88;3.88;;;;;;;12.36;76.41;98149.13;4973677;29;20074;-85
2021/06/02 02:08:52;;;;;;;5.10;4.25;;;;;;;12.35;76.34;98148.28;5001342;28;20037;-87
2021/06/02 02:11:34;;;;;;;4.05;3.65;;;;;;;12.45;76.15;98141.81;4981365;28;20042;-87
2021/06/02 02:14:31;;;;;;;5.47;4.95;;;;;;;12.57;75.99;98152.28;5012272;28;20026;-86
2021/06/02 02:17:17;;;;;;;3.90;3.33;;;;;;;12.27;77.14;98153.66;5012147;28;20490;-89
2021/06/02 02:19:43;;;;;;;4.45;3.58;;;;;;;12.22;78.17;98159.22;5013772;28;20044;-86
2021/06/02 02:22:30;;;;;;;6.03;5.35;;;;;;;12.10;78.15;98153.41;4996504;28;20049;-86
2021/06/02 02:25:07;;;;;;;9.02;4.43;;;;;;;12.01;78.32;98157.94;4996781;28;20032;-86
2021/06/02 02:28:13;;;;;;;6.63;3.80;;;;;;;11.89;78.61;98157.59;5013729;28;20038;-87
2021/06/02 02:30:45;;;;;;;8.98;3.60;;;;;;;11.85;79.17;98153.81;5013347;28;20030;-86
2021/06/02 02:33:16;;;;;;;3.50;3.20;;;;;;;11.81;79.53;98157.16;5014745;28;20439;-85
2021/06/02 02:36:07;;;;;;;4.68;4.25;;;;;;;11.95;79.14;98153.66;5014689;28;20018;-85
2021/06/02 02:38:52;;;;;;;5.63;3.60;;;;;;;11.91;79.28;98150.69;5006412;28;20064;-84
2021/06/02 02:41:36;;;;;;;7.50;3.97;;;;;;;11.84;79.78;98146.72;5009343;28;20030;-85
2021/06/02 02:44:20;;;;;;;8.05;3.70;;;;;;;11.90;79.21;98146.34;5014929;28;20431;-86
2021/06/02 02:46:58;;;;;;;9.65;5.00;;;;;;;11.80;80.32;98146.50;5022391;28;20061;-86
2021/06/02 02:49:26;;;;;;;4.45;3.55;;;;;;;11.87;81.04;98146.97;5023168;28;20064;-87
2021/06/02 02:52:00;;;;;;;7.57;4.72;;;;;;;11.90;80.43;98156.50;5010812;28;20049;-85
2021/06/02 02:54:42;;;;;;;6.88;4.60;;;;;;;11.82;80.14;98152.50;4996636;28;20023;-85
2021/06/02 02:57:23;;;;;;;9.38;3.20;;;;;;;11.88;79.37;98162.25;4998537;28;20065;-83
2021/06/02 03:00:11;;;;;;;6.40;3.50;;;;;;;11.80;80.13;98162.97;4989621;28;20391;-84
2021/06/02 03:02:46;;;;;;;6.00;4.13;;;;;;;11.84;79.89;98169.44;5013681;28;20120;-87
2021/06/02 03:05:20;;;;;;;5.75;3.75;;;;;;;11.82;80.07;98166.19;4995941;28;20018;-87
2021/06/02 03:07:57;;;;;;;6.72;4.50;;;;;;;11.55;80.75;98166.88;4996132;28;20041;-86
2021/06/02 03:10:24;;;;;;;5.43;4.20;;;;;;;11.51;81.63;98171.28;5013775;28;20112;-86
2021/06/02 03:13:05;;;;;;;6.10;4.00;;;;;;;11.59;81.46;98178.06;4995621;28;20080;-85
2021/06/02 03:15:47;;;;;;;6.50;4.05;;;;;;;11.55;82.20;98177.81;4995942;28;20093;-85
2021/06/02 03:18:21;;;;;;;15.15;4.72;;;;;;;11.51;82.19;98170.47;5012905;28;20041;-84
2021/06/02 03:21:02;;;;;;;5.40;4.22;;;;;;;11.45;82.84;98168.91;4992749;28;20081;-85
2021/06/02 03:23:36;;;;;;;5.63;4.55;;;;;;;11.37;83.34;98175.88;4994106;28;20058;-86
2021/06/02 03:26:12;;;;;;;8.35;4.05;;;;;;;11.33;83.69;98171.28;4993518;28;20030;-87
2021/06/02 03:28:59;;;;;;;4.88;3.47;;;;;;;11.45;83.73;98171.66;4993115;28;20038;-86
2021/06/02 03:31:58;;;;;;;7.32;4.35;;;;;;;11.26;84.17;98179.88;4993077;28;20088;-86
2021/06/02 03:34:31;;;;;;;7.00;4.80;;;;;;;11.38;83.34;98174.75;4993949;28;20471;-88
2021/06/02 03:37:31;;;;;;;5.03;3.78;;;;;;;11.52;82.64;98181.16;4976468;28;20069;-86
2021/06/02 03:40:08;;;;;;;6.10;3.83;;;;;;;11.81;81.45;98186.50;4993033;28;20767;-86
2021/06/02 03:42:46;;;;;;;6.57;3.65;;;;;;;12.06;80.10;98179.81;5014306;28;20025;-87
2021/06/02 03:45:33;;;;;;;7.93;4.55;;;;;;;12.40;78.64;98191.28;4999733;28;20148;-86
2021/06/02 03:48:24;;;;;;;4.45;3.50;;;;;;;12.75;76.75;98190.63;4999991;28;20030;-86
2021/06/02 03:51:02;;;;;;;6.70;4.15;;;;;;;12.41;78.21;98192.91;5019098;28;20132;-85
2021/06/02 03:53:39;;;;;;;5.45;3.28;;;;;;;12.91;75.92;98193.88;5018229;28;20022;-86
2021/06/02 03:56:11;;;;;;;4.47;3.50;;;;;;;13.00;75.28;98211.28;5026878;28;20060;-86
2021/06/02 03:59:02;;;;;;;7.90;3.33;;;;;;;13.09;74.19;98192.22;5017778;28;20124;-85
2021/06/02 04:01:51;;;;;;;4.82;3.85;;;;;;;13.04;74.67;98197.75;5007522;28;20503;-85
2021/06/02 04:04:29;;;;;;;3.90;3.40;;;;;;;13.37;73.19;98202.06;4999656;28;20411;-87
2021/06/02 04:07:22;;;;;;;7.60;3.88;;;;;;;13.56;72.49;98202.75;4999746;28;20368;-86
2021/06/02 04:10:08;;;;;;;4.22;3.55;;;;;;;13.18;74.26;98193.13;4995990;28;20030;-85
2021/06/02 04:12:34;;;;;;;6.63;3.63;;;;;;;12.87;75.34;98201.91;4997413;28;20780;-86
2021/06/02 04:15:04;;;;;;;6.00;4.15;;;;;;;12.70;76.28;98203.63;4996354;28;20038;-86
2021/06/02 04:17:31;;;;;;;8.15;3.92;;;;;;;13.15;74.74;98207.47;4995965;28;20022;-86
2021/06/02 04:19:59;;;;;;;7.47;3.70;;;;;;;13.61;72.24;98207.31;4997547;28;20018;-86
2021/06/02 04:22:25;;;;;;;8.27;3.70;;;;;;;14.01;70.94;98209.13;4997916;28;20073;-85
2021/06/02 04:24:51;;;;;;;4.95;3.70;;;;;;;14.72;67.89;98210.13;4980324;28;20027;-85
2021/06/02 04:27:19;;;;;;;5.65;3.70;;;;;;;14.97;66.21;98210.25;4996870;28;20030;-85
2021/06/02 04:29:47;;;;;;;5.68;3.58;;;;;;;15.22;65.35;98203.22;4996737;28;20479;-86
2021/06/02 04:32:14;;;;;;;9.48;4.15;;;;;;;15.17;65.85;98199.78;5000623;28;20033;-88
2021/06/02 04:34:40;;;;;;;4.47;3.50;;;;;;;14.72;66.93;98221.94;4999465;28;20030;-80
2021/06/02 04:37:08;;;;;;;5.53;3.75;;;;;;;14.43;68.14;98207.84;4979762;28;20034;-86
2021/06/02 04:39:37;;;;;;;17.20;4.63;;;;;;;14.18;68.73;98211.19;4980434;28;20496;-84
2021/06/02 04:42:04;;;;;;;9.57;4.28;;;;;;;13.97;69.74;98221.84;5007514;28;20071;-85
2021/06/02 04:44:32;;;;;;;11.25;3.95;;;;;;;14.04;69.50;98218.69;5005163;28;20037;-82
2021/06/02 04:46:58;;;;;;;7.68;4.90;;;;;;;14.09;69.63;98213.91;5005518;28;20033;-80
2021/06/02 04:49:59;;;;;;;11.63;4.68;;;;;;;14.27;68.66;98229.41;5005700;28;20025;-85
2021/06/02 04:52:53;;;;;;;7.30;4.10;;;;;;;14.16;68.49;98228.00;5007195;28;20025;-86
2021/06/02 04:55:48;;;;;;;7.60;5.07;;;;;;;14.57;67.82;98219.59;5012837;28;20018;-85
2021/06/02 04:58:44;;;;;;;7.15;4.55;;;;;;;14.41;68.77;98229.34;5007113;28;20031;-81
2021/06/02 05:01:19;;;;;;;8.35;4.45;;;;;;;14.60;68.70;98229.97;5006621;28;20036;-86
2021/06/02 05:03:59;;;;;;;13.40;3.75;;;;;;;14.48;69.07;98227.78;5016011;28;20150;-85
2021/06/02 05:06:45;;;;;;;6.95;3.90;;;;;;;14.36;69.47;98226.75;5020672;28;20117;-85
2021/06/02 05:09:51;;;;;;;6.63;4.10;;;;;;;13.97;69.53;98226.56;5007877;28;20573;-83
2021/06/02 05:12:28;;;;;;;7.63;4.40;;;;;;;13.65;71.93;98219.31;5014191;28;20061;-88
2021/06/02 05:15:27;;;;;;;6.00;4.22;;;;;;;13.64;71.62;98228.69;4996895;28;20014;-87
2021/06/02 05:18:03;;;;;;;10.75;4.63;;;;;;;13.43;72.57;98222.00;5009866;28;20029;-81
2021/06/02 05:23:59;;;;;;;8.32;4.32;;;;;;;13.35;73.27;98223.53;5006958;28;20057;-81
2021/06/02 05:27:02;;;;;;;8.38;4.13;;;;;;;13.41;73.56;98225.03;5012330;28;20041;-87
2021/06/02 05:29:46;;;;;;;6.78;4.10;;;;;;;13.50;72.76;98223.19;5015471;28;20065;-81
2021/06/02 05:32:45;;;;;;;9.52;3.97;;;;;;;14.04;70.07;98221.44;5016162;28;20089;-87
2021/06/02 05:35:33;;;;;;;6.30;4.40;;;;;;;13.97;70.38;98221.06;5016377;28;20087;-87
2021/06/02 05:38:30;;;;;;;7.25;4.47;;;;;;;13.81;71.15;98226.91;5030909;28;20033;-84
2021/06/02 05:41:08;;;;;;;;;;;;;;;13.68;71.55;98224.19;5012696;28;20072;-78
2021/06/02 05:43:59;;;;;;;5.97;4.03;;;;;;;13.56;71.77;98222.00;5021110;28;19906;-78
2021/06/02 05:47:02;;;;;;;7.50;4.10;;;;;;;13.95;71.03;98224.13;5018745;28;20041;-79
2021/06/02 05:49:52;;;;;;;6.05;3.88;;;;;;;14.19;70.31;98232.09;5039587;28;20022;-78
2021/06/02 05:52:30;;;;;;;10.00;4.47;;;;;;;14.34;70.00;98229.81;5039222;28;20033;-77
2021/06/02 05:55:14;;;;;;;7.88;4.20;;;;;;;14.59;69.26;98239.38;5039918;28;20006;-77
2021/06/02 05:58:21;;;;;;;10.15;4.78;;;;;;;14.64;68.16;98230.97;5037359;28;20041;-87
2021/06/02 06:01:02;;;;;;;16.92;5.10;;;;;;;14.67;68.15;98226.78;5037247;28;20033;-85
2021/06/02 06:04:09;;;;;;;6.68;4.53;;;;;;;14.85;68.10;98237.56;5029220;28;20034;-89
2021/06/02 06:07:00;;;;;;;8.95;6.13;;;;;;;14.98;67.27;98233.09;4992934;28;20030;-86
2021/06/02 06:09:43;;;;;;;12.50;6.72;;;;;;;15.24;66.10;98235.97;5020420;28;20048;-81
2021/06/02 06:12:41;;;;;;;10.35;4.93;;;;;;;15.43;65.03;98228.25;5037573;28;20057;-79
2021/06/02 06:15:35;;;;;;;11.05;4.60;;;;;;;15.56;64.13;98235.63;5037575;28;20018;-81
2021/06/02 06:18:00;;;;;;;12.48;4.70;;;;;;;15.58;63.91;98230.59;5037497;28;20049;-79
2021/06/02 06:21:00;;;;;;;14.98;5.00;;;;;;;15.46;64.11;98230.38;5036527;28;20062;-79
2021/06/02 06:23:46;;;;;;;7.07;4.65;;;;;;;15.58;62.58;98224.25;5032452;28;20033;-88
2021/06/02 06:26:16;;;;;;;11.43;5.57;;;;;;;15.90;62.16;98227.41;5033532;28;20057;-87
2021/06/02 06:28:50;;;;;;;4.45;3.80;;;;;;;16.01;59.80;98225.13;5001634;28;20403;-86
2021/06/02 06:31:21;;;;;;;7.75;4.18;;;;;;;16.12;57.72;98225.63;5015052;28;20038;-85
2021/06/02 06:33:48;;;;;;;5.38;4.43;;;;;;;16.51;58.58;98233.72;5013535;28;20057;-85
2021/06/02 06:36:16;;;;;;;10.65;4.63;;;;;;;16.61;58.23;98233.41;5012268;28;20029;-82
2021/06/02 06:38:48;;;;;;;7.70;5.07;;;;;;;16.62;57.69;98239.75;5013909;28;20036;-85
2021/06/02 06:41:15;;;;;;;5.78;4.32;;;;;;;16.63;57.41;98239.44;5017151;28;20064;-84
2021/06/02 06:43:44;;;;;;;9.20;4.28;;;;;;;16.47;57.77;98239.09;5027785;28;20030;-87
2021/06/02 06:46:10;;;;;;;8.77;4.75;;;;;;;16.62;56.78;98214.88;5002945;28;20050;-84
2021/06/02 06:48:38;;;;;;;6.72;4.13;;;;;;;17.02;55.76;98239.16;5013083;28;20038;-84
2021/06/02 06:51:06;;;;;;;10.18;4.53;;;;;;;17.17;55.51;98234.22;5013764;28;20034;-83
2021/06/02 06:53:32;;;;;;;6.32;4.13;;;;;;;17.40;54.08;98227.28;4996053;28;20034;-85
2021/06/02 06:56:00;;;;;;;5.72;4.30;;;;;;;17.39;54.29;98231.19;5014461;28;20038;-85
2021/06/02 06:58:26;;;;;;;5.47;4.25;;;;;;;17.19;54.89;98226.41;4997110;28;20044;-85
2021/06/02 07:00:52;;;;;;;10.90;4.75;;;;;;;17.18;54.80;98236.66;5014632;28;20030;-86
2021/06/02 07:03:18;;;;;;;6.78;3.83;;;;;;;17.72;52.50;98239.69;5014867;28;20032;-86
2021/06/02 07:05:44;;;;;;;6.78;3.50;;;;;;;18.05;52.19;98248.91;5014064;28;20030;-84
2021/06/02 07:08:11;;;;;;;5.00;3.45;;;;;;;18.16;51.74;98242.63;4997288;28;20505;-85
2021/06/02 07:10:37;;;;;;;6.00;3.22;;;;;;;18.25;50.85;98242.56;5013901;28;20060;-85
2021/06/02 07:13:06;;;;;;;6.38;4.13;;;;;;;18.14;51.24;98247.69;5013296;28;20030;-87
2021/06/02 07:15:31;;;;;;;7.05;3.28;;;;;;;18.16;50.32;98247.38;4977193;28;20034;-87
2021/06/02 07:17:58;;;;;;;4.63;3.72;;;;;;;18.31;50.37;98240.38;5008605;28;20117;-86
2021/06/02 07:20:26;;;;;;;6.05;3.33;;;;;;;17.96;51.67;98240.66;4997577;28;20031;-86
2021/06/02 07:22:53;;;;;;;5.82;3.35;;;;;;;18.22;51.27;98242.44;5000870;28;20010;-85
2021/06/02 07:25:24;;;;;;;9.57;3.22;;;;;;;18.44;51.60;98242.06;4989912;28;20037;-86
2021/06/02 07:27:50;;;;;;;4.95;3.90;;;;;;;18.67;51.25;98240.56;5000998;28;20034;-85
2021/06/02 07:30:19;;;;;;;4.63;3.53;;;;;;;18.38;50.77;98237.91;4983549;28;20068;-86
2021/06/02 07:32:45;;;;;;;9.05;3.97;;;;;;;18.43;50.90;98237.69;5009602;28;20074;-86
2021/06/02 07:35:11;;;;;;;6.30;3.72;;;;;;;18.67;48.92;98232.25;4988750;28;20127;-74
2021/06/02 07:37:36;;;;;;;10.60;4.00;;;;;;;18.52;49.67;98230.94;4997192;28;20484;-75
2021/06/02 07:40:04;;;;;;;5.78;2.90;;;;;;;18.86;49.10;98229.78;4998877;28;20093;-75
2021/06/02 07:42:29;;;;;;;4.63;3.05;;;;;;;19.15;47.37;98229.63;4995896;28;20399;-76
2021/06/02 07:44:55;;;;;;;5.18;3.30;;;;;;;19.48;46.29;98223.22;4991130;28;20047;-76
2021/06/02 07:47:20;;;;;;;8.77;3.55;;;;;;;19.51;46.02;98233.63;4997738;28;20089;-78
2021/06/02 07:49:46;;;;;;;4.70;3.63;;;;;;;19.82;46.22;98233.00;5008229;28;20038;-78
2021/06/02 07:52:12;;;;;;;3.13;2.50;;;;;;;19.60;45.03;98226.78;4987854;28;20033;-75
2021/06/02 07:54:38;;;;;;;5.55;4.13;;;;;;;20.16;44.47;98227.75;5001373;28;20029;-76
2021/06/02 07:57:03;;;;;;;7.15;2.97;;;;;;;20.85;43.25;98229.34;4998081;28;20027;-76
2021/06/02 07:59:29;;;;;;;5.95;2.58;;;;;;;21.41;40.56;98226.47;4980480;28;20117;-75
2021/06/02 08:01:54;;;;;;;5.03;2.67;;;;;;;22.40;38.24;98229.59;4998858;28;20030;-75
2021/06/02 08:04:20;;;;;;;3.67;2.05;;;;;;;23.02;36.92;98234.09;4997393;28;20423;-75
2021/06/02 08:06:45;;;;;;;4.82;2.25;;;;;;;23.12;36.18;98236.25;4999100;28;20838;-73
2021/06/02 08:09:16;;;;;;;4.72;2.45;;;;;;;23.56;35.46;98224.66;5006431;28;20030;-74
2021/06/02 08:11:47;;;;;;;3.40;2.35;;;;;;;23.91;35.50;98217.66;4993791;28;20046;-74
2021/06/02 08:14:13;;;;;;;2.88;2.10;;;;;;;24.02;35.05;98226.22;4978044;28;20052;-74
2021/06/02 08:16:38;;;;;;;5.43;3.17;;;;;;;24.35;34.43;98229.09;4989193;28;20766;-75
2021/06/02 08:19:03;;;;;;;4.82;2.30;;;;;;;24.13;34.14;98218.81;4972854;28;20037;-75
2021/06/02 08:21:29;;;;;;;5.05;2.53;;;;;;;24.40;34.68;98222.38;4990900;28;20035;-74
2021/06/02 08:23:55;;;;;;;2.50;1.63;;;;;;;24.49;33.17;98222.91;4991056;28;20353;-74
2021/06/02 08:26:20;;;;;;;2.70;2.03;;;;;;;24.68;33.42;98213.53;4991547;28;20026;-76
2021/06/02 08:28:45;;;;;;;3.22;2.17;;;;;;;25.29;32.76;98219.41;4992053;28;20156;-81
2021/06/02 08:31:11;;;;;;;9.52;2.38;;;;;;;25.28;32.63;98219.81;4989897;28;20034;-80
2021/06/02 08:33:37;;;;;;;3.97;2.22;;;;;;;24.88;33.15;98224.19;5009845;28;20132;-78
2021/06/02 08:36:02;;;;;;;3.47;2.10;;;;;;;24.90;33.34;98209.81;4990188;28;20033;-77
2021/06/02 08:38:29;;;;;;;4.28;1.90;;;;;;;25.44;31.86;98225.94;5012866;28;20491;-79
2021/06/02 08:40:55;;;;;;;9.23;2.70;;;;;;;26.08;31.38;98227.28;5012209;28;20034;-80
2021/06/02 08:43:21;;;;;;;4.15;2.30;;;;;;;26.79;31.18;98227.66;4995154;28;20029;-79
2021/06/02 08:45:48;;;;;;;5.72;2.65;;;;;;;27.33;29.72;98221.00;5012800;28;20046;-79
2021/06/02 08:48:13;;;;;;;2.95;1.70;;;;;;;26.91;30.53;98214.09;4994498;28;20037;-78
2021/06/02 08:50:39;;;;;;;3.85;2.40;;;;;;;27.02;30.83;98233.78;4994023;28;20022;-77
2021/06/02 08:53:05;;;;;;;7.10;3.45;;;;;;;27.43;29.72;98223.84;4994766;28;20038;-79
2021/06/02 08:55:31;;;;;;;2.80;2.08;;;;;;;27.94;28.54;98217.03;5012793;28;20543;-78
2021/06/02 08:57:57;;;;;;;2.05;1.83;;;;;;;28.32;28.24;98227.41;4995118;28;20061;-79
2021/06/02 09:00:24;;;;;;;2.65;1.90;;;;;;;27.72;28.83;98224.69;4994781;28;20113;-78
2021/06/02 09:02:54;;;;;;;4.13;2.00;;;;;;;27.75;28.53;98214.63;4982167;28;20106;-78
2021/06/02 09:05:19;;;;;;;4.75;1.67;;;;;;;27.98;28.47;98221.41;4992358;28;20030;-79
2021/06/02 09:07:49;;;;;;;4.00;2.58;;;;;;;26.96;30.05;98212.91;4993970;28;20038;-79
2021/06/02 09:10:14;;;;;;;2.40;1.92;;;;;;;25.15;33.17;98199.69;4994351;28;20390;-80
2021/06/02 09:12:41;;;;;;;6.57;2.08;;;;;;;25.05;33.50;98205.97;5012657;28;20037;-80
2021/06/02 09:15:15;;;;;;;5.45;2.33;;;;;;;25.99;32.14;98202.38;4994257;28;20057;-81
2021/06/02 09:18:00;;;;;;;3.60;2.17;;;;;;;25.63;32.47;98202.50;4998363;28;20042;-79
2021/06/02 09:20:41;;;;;;;22.98;17.67;;;;;;;26.33;31.88;98205.81;5009359;28;20042;-79
2021/06/02 09:23:27;;;;;;;5.43;4.22;;;;;;;28.35;29.14;98203.28;4996866;28;20033;-79
2021/06/02 09:25:58;;;;;;;3.00;2.30;;;;;;;27.71;29.59;98208.19;4996552;28;20040;-79
2021/06/02 09:28:54;;;;;;;3.83;2.60;;;;;;;27.26;30.89;98213.34;5021921;28;20044;-79
2021/06/02 09:31:23;;;;;;;2.58;1.98;;;;;;;28.02;29.33;98210.16;4984765;28;20034;-78
2021/06/02 09:33:49;;;;;;;2.10;1.90;;;;;;;28.43;28.78;98205.69;5000296;28;20045;-78
2021/06/02 09:36:15;;;;;;;3.95;2.03;;;;;;;28.38;29.08;98196.84;4978230;28;20031;-78
2021/06/02 09:38:50;;;;;;;4.13;2.20;;;;;;;27.29;30.40;98198.50;5008278;28;20054;-78
2021/06/02 09:41:16;;;;;;;5.72;3.03;;;;;;;27.93;30.83;98204.16;4989255;28;20030;-79
2021/06/02 09:43:41;;;;;;;6.45;2.17;;;;;;;28.15;30.04;98202.94;4990600;28;20042;-79
2021/06/02 09:46:09;;;;;;;2.03;1.83;;;;;;;28.65;29.83;98193.16;4974502;28;20216;-78
2021/06/02 09:48:47;;;;;;;4.68;2.38;;;;;;;27.91;31.09;98196.09;4974521;28;20038;-78
2021/06/02 09:51:35;;;;;;;7.47;3.00;;;;;;;28.53;29.77;98195.59;4991380;28;20022;-78
2021/06/02 09:54:06;;;;;;;3.63;2.25;;;;;;;28.70;29.89;98187.06;4991746;28;20030;-79
2021/06/02 09:56:34;;;;;;;3.33;2.75;;;;;;;28.47;29.62;98175.50;4992020;28;20040;-74
2021/06/02 09:59:00;;;;;;;8.10;2.90;;;;;;;28.98;29.51;98174.03;4996852;28;20034;-74
2021/06/02 10:01:25;;;;;;;3.63;2.25;;;;;;;28.79;29.93;98177.41;4999341;28;20077;-74
2021/06/02 10:03:51;;;;;;;2.55;2.33;;;;;;;27.66;31.11;98178.47;5001386;28;20030;-74
2021/06/02 10:06:17;;;;;;;4.28;2.35;;;;;;;28.79;30.16;98174.59;4998362;28;20061;-74
2021/06/02 10:08:52;;;;;;;3.63;2.45;;;;;;;27.30;31.58;98174.81;5003844;28;20121;-74
2021/06/02 10:11:18;;;;;;;2.67;2.08;;;;;;;27.90;31.71;98185.28;4992278;28;20033;-74
2021/06/02 10:13:50;;;;;;;3.55;2.17;;;;;;;29.07;29.67;98169.56;5009819;28;20068;-73
2021/06/02 10:16:33;;;;;;;3.45;2.28;;;;;;;30.36;27.54;98162.38;4997904;28;20042;-74
2021/06/02 10:18:59;;;;;;;2.38;1.77;;;;;;;30.98;26.68;98164.06;5005252;28;20472;-73
2021/06/02 10:21:24;;;;;;;3.13;1.85;;;;;;;29.77;28.58;98154.13;4983193;28;20029;-73
2021/06/02 10:23:51;;;;;;;6.00;2.20;;;;;;;29.33;29.60;98168.19;5005979;28;20399;-74
2021/06/02 10:26:18;;;;;;;5.60;2.53;;;;;;;27.95;31.16;98156.72;4996149;28;20037;-73
2021/06/02 10:28:45;;;;;;;3.88;2.40;;;;;;;27.29;31.71;98152.75;4992120;28;20058;-73
2021/06/02 10:31:13;;;;;;;5.78;2.58;;;;;;;26.57;33.33;98146.16;4997183;28;20034;-73
2021/06/02 10:33:39;;;;;;;3.85;2.38;;;;;;;25.85;35.48;98151.00;4978463;28;20034;-73
2021/06/02 10:36:07;;;;;;;3.40;2.47;;;;;;;26.35;34.70;98152.91;4999208;28;20028;-73
2021/06/02 10:38:41;;;;;;;2.47;2.03;;;;;;;26.96;34.09;98156.72;4990290;28;20038;-72
2021/06/02 10:41:07;;;;;;;4.25;2.25;;;;;;;26.24;35.18;98146.47;5010647;28;20033;-74
2021/06/02 10:43:44;;;;;;;4.32;2.38;;;;;;;24.27;38.24;98143.50;5014631;28;20080;-76
2021/06/02 10:46:16;;;;;;;7.55;2.03;;;;;;;24.43;38.30;98146.09;5016580;28;20510;-72
2021/06/02 10:48:46;;;;;;;5.50;2.50;;;;;;;24.98;37.26;98141.50;5011663;28;20077;-74
2021/06/02 10:51:25;;;;;;;1.95;1.80;;;;;;;24.97;37.66;98139.88;4987792;28;20037;-79
2021/06/02 10:54:05;;;;;;;3.95;2.03;;;;;;;24.59;38.50;98141.06;4993339;28;20033;-81
2021/06/02 10:56:31;;;;;;;2.35;2.15;;;;;;;24.72;37.57;98141.59;5001774;28;20109;-79
2021/06/02 10:58:56;;;;;;;5.35;2.35;;;;;;;24.76;36.98;98134.06;4990456;28;20036;-82
2021/06/02 11:01:22;;;;;;;2.50;2.25;;;;;;;25.07;36.52;98139.19;4978943;28;20382;-80
2021/06/02 11:04:12;;;;;;;3.38;2.08;;;;;;;25.65;35.75;98150.50;4973009;28;20034;-80
2021/06/02 11:06:44;;;;;;;6.05;2.35;;;;;;;25.63;35.56;98150.06;4992098;28;20093;-80
2021/06/02 11:09:12;;;;;;;7.80;2.58;;;;;;;25.82;35.78;98160.19;4991995;28;20030;-81
2021/06/02 11:11:40;;;;;;;3.40;2.50;;;;;;;25.87;35.22;98145.84;4996070;28;20026;-80
2021/06/02 11:16:47;;;;;;;8.10;2.15;;;;;;;25.79;35.37;98146.97;4999438;28;20109;-73
2021/06/02 11:19:23;;;;;;;2.97;2.13;;;;;;;26.36;34.62;98146.09;4997815;28;20030;-73
2021/06/02 11:21:55;;;;;;;4.57;2.15;;;;;;;26.48;34.61;98142.13;4997676;28;20041;-74
2021/06/02 11:24:36;;;;;;;2.22;1.92;;;;;;;26.45;34.10;98148.53;4998975;28;20046;-73
2021/06/02 11:27:11;;;;;;;2.47;2.08;;;;;;;25.90;34.58;98145.03;4982104;28;20472;-74
2021/06/02 11:29:52;;;;;;;4.50;2.00;;;;;;;25.49;35.99;98141.56;5011627;28;20094;-77
2021/06/02 11:32:26;;;;;;;3.60;2.35;;;;;;;25.80;35.53;98146.59;4993886;28;20031;-76
2021/06/02 11:34:53;;;;;;;3.58;2.03;;;;;;;25.56;35.67;98145.22;4997152;28;20030;-76
2021/06/02 11:37:25;;;;;;;5.38;2.00;;;;;;;26.04;34.70;98145.13;5000059;28;20426;-74
2021/06/02 11:39:57;;;;;;;3.63;1.92;;;;;;;26.16;34.65;98142.00;5004018;28;20460;-74
2021/06/02 11:42:46;;;;;;;3.08;2.25;;;;;;;24.91;36.60;98138.63;5000525;28;20483;-73
2021/06/02 11:45:16;;;;;;;2.75;1.92;;;;;;;25.38;36.82;98133.03;4999313;28;20801;-73
2021/06/02 11:47:52;;;;;;;2.20;2.00;;;;;;;25.69;35.99;98136.47;4998916;28;20399;-74
2021/06/02 11:50:19;;;;;;;2.25;2.05;;;;;;;26.18;35.10;98131.19;4995063;28;20085;-79
2021/06/02 11:52:53;;;;;;;4.60;2.50;;;;;;;25.93;35.58;98133.84;4982363;28;20030;-73
2021/06/02 11:55:19;;;;;;;2.70;2.10;;;;;;;26.18;35.60;98125.59;4981447;28;20475;-78
2021/06/02 11:57:48;;;;;;;2.67;1.85;;;;;;;25.74;36.07;98113.72;4996473;28;20091;-74
2021/06/02 12:00:20;;;;;;;4.45;2.10;;;;;;;25.20;36.50;98136.88;4995113;28;20023;-78
2021/06/02 12:02:54;;;;;;;2.17;1.70;;;;;;;25.19;36.53;98127.69;4998689;28;20034;-76
2021/06/02 12:05:21;;;;;;;3.13;2.35;;;;;;;25.05;36.41;98130.38;4998629;28;20077;-75
2021/06/02 12:07:54;;;;;;;2.78;1.65;;;;;;;25.11;37.03;98128.00;5000015;28;20064;-75
2021/06/02 12:10:22;;;;;;;3.72;2.17;;;;;;;25.25;36.60;98131.72;4984353;28;20109;-75
2021/06/02 12:12:49;;;;;;;2.53;1.90;;;;;;;25.69;35.60;98133.69;4985961;28;20188;-77